Time;durP1;ratioP1;P1;durP2;ratioP2;P2;SDS_P1;SDS_P2;PMS_P1;PMS_P2;Temp;Humidity;BMP_temperature;BMP_pressure;BME280_temperature;BME280_humidity;BME280_pressure;Samples;Min_cycle;Max_cycle;Signal;HPM_P1;HPM_P2
2024/04/04 00:02:16;;;;;;;1.63;1.20;;;;;;;4.22;100.00;92625.78;4910186;29;20051;-77
2024/04/04 00:04:42;;;;;;;2.13;1.40;;;;;;;4.21;100.00;92629.41;4903073;29;20029;-76
2024/04/04 00:07:07;;;;;;;2.35;1.25;;;;;;;4.22;100.00;92627.59;4906864;29;20032;-76
2024/04/04 00:09:33;;;;;;;2.00;1.35;;;;;;;4.22;100.00;92628.38;4889353;29;20410;-76
2024/04/04 00:11:58;;;;;;;1.88;1.40;;;;;;;4.24;100.00;92625.56;4905559;29;20474;-76
2024/04/04 00:14:24;;;;;;;2.88;1.27;;;;;;;4.26;100.00;92621.69;4904796;29;20100;-75
2024/04/04 00:16:50;;;;;;;2.67;1.30;;;;;;;4.26;100.00;92619.09;4889821;29;20039;-76
2024/04/04 00:19:15;;;;;;;2.67;1.30;;;;;;;4.28;100.00;92619.63;4905521;29;20079;-76
2024/04/04 00:21:41;;;;;;;3.45;1.30;;;;;;;4.32;100.00;92630.28;4899775;29;20068;-76
2024/04/04 00:24:07;;;;;;;5.25;1.50;;;;;;;4.33;100.00;92622.28;4907240;29;20522;-76
2024/04/04 00:26:32;;;;;;;3.90;1.50;;;;;;;4.37;100.00;92620.00;4899525;29;20028;-74
2024/04/04 00:28:58;;;;;;;2.28;1.40;;;;;;;4.39;100.00;92620.53;4906777;29;20055;-73
2024/04/04 00:31:24;;;;;;;3.28;1.30;;;;;;;4.41;100.00;92618.44;4882178;29;20533;-73
2024/04/04 00:33:50;;;;;;;1.60;1.15;;;;;;;4.43;100.00;92613.03;4906762;29;20353;-74
2024/04/04 00:36:15;;;;;;;1.45;1.10;;;;;;;4.44;100.00;92619.78;4888290;29;20039;-74
2024/04/04 00:38:41;;;;;;;2.25;1.30;;;;;;;4.46;100.00;92622.91;4908207;29;20615;-76
2024/04/04 00:41:07;;;;;;;2.20;1.30;;;;;;;4.46;100.00;92617.72;4895630;29;20530;-76
2024/04/04 00:43:34;;;;;;;1.27;1.17;;;;;;;4.46;100.00;92615.94;4904560;29;20040;-76
2024/04/04 00:46:03;;;;;;;2.08;1.30;;;;;;;4.45;100.00;92618.75;4870920;29;20045;-76
2024/04/04 00:48:28;;;;;;;2.20;1.20;;;;;;;4.46;100.00;92612.53;4901941;29;20032;-79
2024/04/04 00:50:54;;;;;;;2.53;1.20;;;;;;;4.47;100.00;92616.69;4863947;29;20550;-76
2024/04/04 00:53:23;;;;;;;2.20;1.23;;;;;;;4.50;100.00;92618.78;4900489;29;20123;-76
2024/04/04 00:55:49;;;;;;;1.98;1.20;;;;;;;4.52;100.00;92614.16;4896267;29;20112;-76
2024/04/04 00:58:19;;;;;;;2.25;1.40;;;;;;;4.55;100.00;92618.88;4898241;29;20411;-77
2024/04/04 01:00:45;;;;;;;1.83;1.20;;;;;;;4.56;100.00;92620.41;4898392;29;20065;-75
2024/04/04 01:03:11;;;;;;;2.72;1.20;;;;;;;4.56;100.00;92616.00;4886593;29;20095;-74
2024/04/04 01:05:37;;;;;;;4.70;1.40;;;;;;;4.55;100.00;92624.06;4899817;29;20048;-76
2024/04/04 01:08:05;;;;;;;3.85;1.30;;;;;;;4.48;100.00;92620.84;4905158;29;20035;-76
2024/04/04 01:10:31;;;;;;;2.88;1.38;;;;;;;4.46;100.00;92617.72;4895581;29;20041;-76
2024/04/04 01:12:56;;;;;;;1.67;1.30;;;;;;;4.44;100.00;92617.19;4901139;29;20032;-76
2024/04/04 01:15:22;;;;;;;2.53;1.30;;;;;;;4.42;100.00;92625.22;4908509;29;20548;-74
2024/04/04 01:17:48;;;;;;;2.17;1.15;;;;;;;4.41;100.00;92618.44;4876292;29;20048;-76
2024/04/04 01:20:13;;;;;;;1.55;1.17;;;;;;;4.39;100.00;92620.53;4904472;29;20036;-76
2024/04/04 01:22:39;;;;;;;3.00;1.30;;;;;;;4.39;100.00;92630.91;4904580;29;20036;-76
2024/04/04 01:25:05;;;;;;;4.50;1.30;;;;;;;4.37;100.00;92623.34;4903069;29;20099;-76
2024/04/04 01:27:32;;;;;;;4.13;1.30;;;;;;;4.36;100.00;92614.00;4863679;29;20024;-75
2024/04/04 01:29:57;;;;;;;5.03;1.48;;;;;;;4.37;100.00;92622.56;4902158;29;20046;-75
2024/04/04 01:32:23;;;;;;;1.67;1.20;;;;;;;4.36;100.00;92624.38;4904629;29;20391;-75
2024/04/04 01:34:49;;;;;;;4.10;1.50;;;;;;;4.40;100.00;92616.13;4910402;29;20049;-75
2024/04/04 01:37:15;;;;;;;2.15;1.30;;;;;;;4.37;100.00;92609.63;4889209;29;20352;-74
2024/04/04 01:39:40;;;;;;;3.20;1.30;;;;;;;4.36;100.00;92606.22;4897537;29;20040;-77
2024/04/04 01:42:06;;;;;;;2.22;1.48;;;;;;;4.40;100.00;92611.72;4902918;29;20044;-76
2024/04/04 01:44:31;;;;;;;2.70;1.30;;;;;;;4.41;100.00;92617.66;4897637;29;20509;-76
2024/04/04 01:46:57;;;;;;;1.85;1.30;;;;;;;4.37;100.00;92607.81;4899309;29;20080;-75
2024/04/04 01:49:23;;;;;;;1.75;1.20;;;;;;;4.36;100.00;92605.44;4892089;29;20537;-75
2024/04/04 01:51:48;;;;;;;2.15;1.40;;;;;;;4.33;100.00;92609.31;4897550;29;20028;-74
2024/04/04 01:54:15;;;;;;;1.88;1.13;;;;;;;4.32;100.00;92599.19;4894649;29;20479;-77
2024/04/04 01:56:42;;;;;;;1.98;1.20;;;;;;;4.28;100.00;92598.09;4885342;29;20040;-73
2024/04/04 01:59:09;;;;;;;1.83;1.10;;;;;;;4.24;100.00;92608.19;4870707;29;20049;-76
2024/04/04 02:01:35;;;;;;;3.13;1.40;;;;;;;4.22;100.00;92604.28;4884147;29;20041;-76
2024/04/04 02:04:01;;;;;;;1.63;1.20;;;;;;;4.19;100.00;92595.19;4882438;29;20462;-74
2024/04/04 02:06:27;;;;;;;1.52;1.10;;;;;;;4.18;100.00;92603.97;4886167;29;20099;-74
2024/04/04 02:08:52;;;;;;;2.08;1.40;;;;;;;4.16;100.00;92601.63;4886146;29;20044;-75
2024/04/04 02:11:18;;;;;;;1.67;1.30;;;;;;;4.15;100.00;92594.09;4878095;29;20443;-75
2024/04/04 02:13:43;;;;;;;2.97;1.50;;;;;;;4.15;100.00;92588.91;4881143;29;20044;-75
2024/04/04 02:16:09;;;;;;;2.75;1.30;;;;;;;4.15;100.00;92591.50;4883818;29;20036;-76
2024/04/04 02:18:35;;;;;;;2.28;1.30;;;;;;;4.15;100.00;92596.69;4882326;29;20052;-75
2024/04/04 02:21:02;;;;;;;1.70;1.23;;;;;;;4.13;100.00;92593.56;4876819;29;20041;-75
2024/04/04 02:23:30;;;;;;;2.70;1.20;;;;;;;4.11;100.00;92582.66;4880138;29;20112;-73
2024/04/04 02:25:57;;;;;;;1.90;1.10;;;;;;;4.09;100.00;92569.94;4886789;29;20052;-74
2024/04/04 02:28:23;;;;;;;3.75;1.33;;;;;;;4.08;100.00;92577.97;4887049;29;20498;-76
2024/04/04 02:30:49;;;;;;;1.88;1.23;;;;;;;4.04;100.00;92580.25;4883625;29;20041;-74
2024/04/04 02:33:14;;;;;;;1.77;1.20;;;;;;;4.02;100.00;92579.72;4881683;29;20092;-75
2024/04/04 02:35:51;;;;;;;2.78;1.15;;;;;;;4.00;100.00;92575.81;4881983;29;20451;-76
2024/04/04 02:38:17;;;;;;;3.28;1.50;;;;;;;4.00;100.00;92576.59;4884047;29;20040;-76
2024/04/04 02:40:43;;;;;;;2.47;1.20;;;;;;;4.00;100.00;92565.44;4877010;29;20292;-76
2024/04/04 02:43:08;;;;;;;3.13;1.25;;;;;;;3.96;100.00;92568.53;4863635;29;20048;-75
2024/04/04 02:45:34;;;;;;;2.53;1.30;;;;;;;3.93;100.00;92565.63;4875924;29;20041;-76
2024/04/04 02:47:59;;;;;;;1.25;1.08;;;;;;;3.93;100.00;92566.41;4877333;29;20181;-76
2024/04/04 02:50:27;;;;;;;1.45;1.10;;;;;;;3.89;100.00;92570.50;4875090;29;20123;-76
2024/04/04 02:52:53;;;;;;;1.45;1.20;;;;;;;3.87;100.00;92570.00;4866574;29;20071;-76
2024/04/04 02:55:19;;;;;;;1.95;1.10;;;;;;;3.87;100.00;92572.56;4877494;29;20033;-76
2024/04/04 02:57:45;;;;;;;3.15;1.10;;;;;;;3.86;100.00;92565.03;4892860;29;20590;-75
2024/04/04 03:00:11;;;;;;;1.58;1.17;;;;;;;3.88;100.00;92563.78;4879515;29;20049;-76
2024/04/04 03:02:37;;;;;;;2.53;1.20;;;;;;;3.86;100.00;92567.63;4889412;29;20467;-76
2024/04/04 03:05:04;;;;;;;1.13;1.00;;;;;;;3.85;100.00;92561.69;4882640;29;20033;-76
2024/04/04 03:07:29;;;;;;;5.15;1.38;;;;;;;3.87;100.00;92556.22;4874842;29;20454;-76
2024/04/04 03:09:55;;;;;;;2.97;1.50;;;;;;;3.92;100.00;92554.50;4875065;29;20033;-76
2024/04/04 03:12:21;;;;;;;2.50;1.27;;;;;;;3.94;100.00;92557.63;4881294;29;20037;-76
2024/04/04 03:14:46;;;;;;;2.03;1.38;;;;;;;4.01;100.00;92559.22;4881961;29;20581;-76
2024/04/04 03:17:12;;;;;;;1.98;1.30;;;;;;;4.01;100.00;92560.03;4882289;29;20055;-74
2024/04/04 03:19:37;;;;;;;2.65;1.40;;;;;;;3.97;100.00;92551.94;4878049;29;20036;-75
2024/04/04 03:22:03;;;;;;;2.35;1.20;;;;;;;3.94;100.00;92560.22;4903339;29;20056;-75
2024/04/04 03:24:29;;;;;;;2.50;1.45;;;;;;;3.89;100.00;92562.72;4882475;29;20135;-75
2024/04/04 03:26:55;;;;;;;1.90;1.38;;;;;;;3.84;100.00;92557.50;4885977;29;20028;-75
2024/04/04 03:29:21;;;;;;;1.63;1.23;;;;;;;3.83;100.00;92555.97;4882082;29;20029;-75
2024/04/04 03:31:46;;;;;;;2.45;1.38;;;;;;;3.84;100.00;92559.31;4874828;29;20040;-74
2024/04/04 03:34:12;;;;;;;1.38;1.17;;;;;;;3.79;100.00;92554.88;4881437;29;20037;-75
2024/04/04 03:36:38;;;;;;;2.17;1.30;;;;;;;3.76;100.00;92550.19;4888625;29;20507;-74
2024/04/04 03:39:03;;;;;;;2.80;1.50;;;;;;;3.72;100.00;92549.88;4874432;29;20033;-75
2024/04/04 03:41:29;;;;;;;3.22;1.58;;;;;;;3.71;100.00;92553.47;4873341;29;20127;-75
2024/04/04 03:43:57;;;;;;;2.17;1.45;;;;;;;3.70;100.00;92562.28;4874601;29;20515;-74
2024/04/04 03:46:22;;;;;;;3.00;1.42;;;;;;;3.72;100.00;92562.03;4870993;29;20039;-74
2024/04/04 03:48:48;;;;;;;1.63;1.20;;;;;;;3.68;100.00;92563.53;4877745;29;20037;-74
2024/04/04 03:51:14;;;;;;;1.92;1.40;;;;;;;3.66;100.00;92560.41;4875049;29;20458;-75
2024/04/04 03:53:44;;;;;;;2.55;1.40;;;;;;;3.62;100.00;92554.94;4881034;29;20041;-75
2024/04/04 03:56:09;;;;;;;1.95;1.23;;;;;;;3.59;100.00;92552.81;4880644;29;20041;-74
2024/04/04 03:58:35;;;;;;;3.33;1.50;;;;;;;3.61;100.00;92560.38;4857806;29;20092;-75
2024/04/04 04:01:01;;;;;;;2.65;1.35;;;;;;;3.57;100.00;92561.88;4878574;29;20048;-75
2024/04/04 04:03:26;;;;;;;2.47;1.30;;;;;;;3.58;100.00;92558.22;4877076;29;20041;-75
2024/04/04 04:05:52;;;;;;;3.95;1.50;;;;;;;3.50;100.00;92547.28;4878236;29;20044;-76
2024/04/04 04:08:17;;;;;;;2.95;1.48;;;;;;;3.56;100.00;92561.09;4885107;29;20047;-75
2024/04/04 04:10:43;;;;;;;2.20;1.38;;;;;;;3.52;100.00;92555.59;4885251;29;20041;-75
2024/04/04 04:13:09;;;;;;;2.70;1.20;;;;;;;3.47;100.00;92555.53;4883852;29;20064;-75
2024/04/04 04:15:35;;;;;;;3.03;1.40;;;;;;;3.48;100.00;92556.31;4873570;29;20041;-75
2024/04/04 04:18:01;;;;;;;2.88;1.33;;;;;;;3.53;100.00;92559.75;4874103;29;20033;-75
2024/04/04 04:23:11;;;;;;;3.35;1.40;;;;;;;3.54;100.00;92561.31;4875931;29;20036;-77
2024/04/04 04:25:37;;;;;;;3.22;1.50;;;;;;;3.55;100.00;92565.47;4885585;29;20123;-74
2024/04/04 04:28:03;;;;;;;1.58;1.20;;;;;;;3.54;100.00;92569.09;4881991;29;20041;-75
2024/04/04 04:30:29;;;;;;;2.28;1.50;;;;;;;3.53;100.00;92570.13;4885164;29;20043;-75
2024/04/04 04:32:54;;;;;;;2.15;1.30;;;;;;;3.53;100.00;92562.34;4879035;29;20044;-75
2024/04/04 04:35:22;;;;;;;3.28;1.70;;;;;;;3.52;100.00;92565.94;4878401;29;20496;-76
2024/04/04 04:37:48;;;;;;;3.78;1.52;;;;;;;3.51;100.00;92561.81;4881805;29;20052;-75
2024/04/04 04:40:15;;;;;;;2.38;1.30;;;;;;;3.51;100.00;92574.75;4896690;29;20035;-76
2024/04/04 04:42:40;;;;;;;2.10;1.30;;;;;;;3.50;100.00;92572.38;4887167;29;20037;-76
2024/04/04 04:45:06;;;;;;;2.50;1.30;;;;;;;3.48;100.00;92571.84;4885125;29;20455;-76
2024/04/04 04:47:34;;;;;;;1.73;1.30;;;;;;;3.49;100.00;92583.75;4885204;29;20045;-77
2024/04/04 04:50:00;;;;;;;2.22;1.30;;;;;;;3.49;100.00;92578.56;4872861;29;20465;-75
2024/04/04 04:52:25;;;;;;;2.30;1.15;;;;;;;3.48;100.00;92588.16;4884682;29;20128;-75
2024/04/04 04:54:51;;;;;;;1.77;1.30;;;;;;;3.49;100.00;92596.69;4884663;29;20085;-76
2024/04/04 04:57:17;;;;;;;2.10;1.25;;;;;;;3.49;100.00;92594.91;4877085;29;20041;-76
2024/04/04 04:59:42;;;;;;;2.03;1.23;;;;;;;3.51;100.00;92600.63;4879039;29;20061;-76
2024/04/04 05:02:08;;;;;;;1.60;1.20;;;;;;;3.50;100.00;92593.09;4884034;29;20091;-76
2024/04/04 05:04:34;;;;;;;3.03;1.50;;;;;;;3.55;100.00;92596.53;4881169;29;20259;-76
2024/04/04 05:07:00;;;;;;;2.60;1.20;;;;;;;3.62;100.00;92600.75;4868107;29;20063;-75
2024/04/04 05:09:25;;;;;;;1.58;1.15;;;;;;;3.62;100.00;92608.50;4882864;29;20055;-77
2024/04/04 05:11:51;;;;;;;2.65;1.30;;;;;;;3.63;100.00;92607.50;4879657;29;20056;-80
2024/04/04 05:14:17;;;;;;;3.03;1.40;;;;;;;3.67;100.00;92614.56;4882011;29;20434;-77
2024/04/04 05:16:46;;;;;;;1.48;1.10;;;;;;;3.71;100.00;92615.59;4883731;29;20498;-77
2024/04/04 05:19:11;;;;;;;2.00;1.40;;;;;;;3.76;100.00;92614.91;4880556;29;20041;-78
2024/04/04 05:21:37;;;;;;;3.75;1.40;;;;;;;3.80;100.00;92623.75;4880323;29;20063;-78
2024/04/04 05:24:03;;;;;;;1.77;1.10;;;;;;;3.82;100.00;92626.88;4886279;29;20029;-78
2024/04/04 05:26:29;;;;;;;1.42;1.10;;;;;;;3.88;100.00;92632.91;4880227;29;20033;-78
2024/04/04 05:28:55;;;;;;;5.85;1.23;;;;;;;3.86;100.00;92638.34;4868339;29;20077;-78
2024/04/04 05:31:25;;;;;;;1.25;1.00;;;;;;;3.88;100.00;92640.69;4887827;29;20075;-77
2024/04/04 05:33:52;;;;;;;3.45;1.33;;;;;;;3.92;100.00;92642.56;4879693;29;20036;-77
2024/04/04 05:36:18;;;;;;;2.20;1.45;;;;;;;3.96;100.00;92638.47;4874919;29;20064;-77
2024/04/04 05:38:43;;;;;;;2.05;1.30;;;;;;;4.00;100.00;92643.94;4875226;29;20037;-77
2024/04/04 05:41:09;;;;;;;1.83;1.10;;;;;;;4.04;100.00;92644.25;4879570;29;20044;-79
2024/04/04 05:43:35;;;;;;;5.63;1.38;;;;;;;4.09;100.00;92646.88;4874395;29;20048;-79
2024/04/04 05:46:02;;;;;;;1.20;1.10;;;;;;;4.11;100.00;92650.03;4876106;29;20376;-78
2024/04/04 05:48:28;;;;;;;2.78;1.40;;;;;;;4.15;100.00;92651.09;4873126;29;20029;-79
2024/04/04 05:51:04;;;;;;;2.92;1.30;;;;;;;4.17;100.00;92643.88;4875296;29;20045;-78
2024/04/04 05:53:30;;;;;;;1.95;1.20;;;;;;;4.21;100.00;92650.16;4873415;29;20056;-78
2024/04/04 05:55:55;;;;;;;1.75;1.13;;;;;;;4.27;100.00;92658.75;4879280;29;20029;-78
2024/04/04 05:58:21;;;;;;;2.20;1.38;;;;;;;4.33;100.00;92652.59;4875530;29;20076;-78
2024/04/04 06:00:47;;;;;;;2.13;1.23;;;;;;;4.45;100.00;92645.44;4880675;29;20033;-78
2024/04/04 06:03:13;;;;;;;1.45;1.10;;;;;;;4.69;100.00;92647.78;4870210;29;20469;-78
2024/04/04 06:05:39;;;;;;;2.47;1.25;;;;;;;5.06;100.00;92655.59;4873662;29;20049;-79
2024/04/04 06:08:05;;;;;;;1.30;1.20;;;;;;;6.24;100.00;92656.31;4874069;29;20036;-78
2024/04/04 06:10:31;;;;;;;2.45;1.20;;;;;;;7.69;100.00;92653.56;4881170;29;20107;-79
2024/04/04 06:12:57;;;;;;;1.17;1.05;;;;;;;8.92;100.00;92648.66;4874160;29;20495;-81
2024/04/04 06:15:23;;;;;;;2.17;1.10;;;;;;;10.12;100.00;92652.56;4870431;29;20044;-80
2024/04/04 06:17:49;;;;;;;1.52;1.02;;;;;;;11.16;100.00;92628.19;4873429;29;20049;-79
2024/04/04 06:20:15;;;;;;;1.58;1.20;;;;;;;12.06;100.00;92641.13;4872182;29;20096;-79
2024/04/04 06:22:41;;;;;;;2.88;1.10;;;;;;;12.71;100.00;92650.63;4866444;29;20048;-80
2024/04/04 06:25:06;;;;;;;5.78;1.30;;;;;;;13.46;100.00;92654.50;4877255;29;20029;-78
2024/04/04 06:27:32;;;;;;;2.33;1.30;;;;;;;14.22;96.05;92663.44;4871049;29;20052;-79
2024/04/04 06:29:59;;;;;;;3.10;1.30;;;;;;;14.57;95.64;92662.50;4868073;29;20041;-79
2024/04/04 06:32:25;;;;;;;3.78;1.58;;;;;;;15.43;92.73;92668.19;4868739;29;20041;-79
2024/04/04 06:34:51;;;;;;;3.13;1.50;;;;;;;15.78;83.78;92679.53;4871091;29;20028;-80
2024/04/04 06:37:18;;;;;;;3.20;1.48;;;;;;;14.89;88.33;92678.25;4873282;29;20052;-80
2024/04/04 06:39:44;;;;;;;3.10;1.35;;;;;;;15.05;86.74;92658.25;4876806;29;20100;-79
2024/04/04 06:42:11;;;;;;;2.38;1.13;;;;;;;14.50;93.45;92669.25;4873245;29;20040;-79
2024/04/04 06:44:37;;;;;;;2.22;1.20;;;;;;;14.04;97.46;92670.47;4873549;29;20530;-79
2024/04/04 06:47:03;;;;;;;3.90;1.40;;;;;;;14.36;92.74;92677.28;4875213;29;20154;-79
2024/04/04 06:49:28;;;;;;;2.50;1.05;;;;;;;14.11;93.42;92668.19;4854554;29;20072;-79
2024/04/04 06:51:55;;;;;;;2.13;1.00;;;;;;;14.86;90.12;92670.94;4873747;29;20044;-79
2024/04/04 06:54:22;;;;;;;1.67;1.10;;;;;;;15.60;85.99;92667.38;4873328;29;20037;-80
2024/04/04 06:56:47;;;;;;;1.50;1.10;;;;;;;16.19;80.71;92672.13;4875003;29;20689;-80
2024/04/04 06:59:13;;;;;;;2.65;1.10;;;;;;;17.20;78.93;92672.25;4871368;29;20065;-80
2024/04/04 07:01:39;;;;;;;1.42;0.90;;;;;;;17.76;70.96;92681.75;4872169;29;20056;-80
2024/04/04 07:04:07;;;;;;;1.38;0.80;;;;;;;17.59;62.58;92677.41;4872412;29;20396;-80
2024/04/04 07:06:34;;;;;;;2.40;1.20;;;;;;;17.72;62.88;92679.00;4867240;29;20496;-78
2024/04/04 07:08:59;;;;;;;1.58;0.70;;;;;;;17.74;61.29;92683.94;4871671;29;20036;-79
2024/04/04 07:11:26;;;;;;;4.63;1.17;;;;;;;18.29;65.72;92682.81;4869394;29;20127;-78
2024/04/04 07:13:52;;;;;;;2.53;1.40;;;;;;;17.19;68.61;92689.22;4873068;29;20029;-79
2024/04/04 07:16:18;;;;;;;2.10;1.20;;;;;;;16.53;79.62;92684.41;4873897;29;20143;-79
2024/04/04 07:18:43;;;;;;;3.58;1.48;;;;;;;15.87;80.64;92676.06;4873553;29;20792;-79
2024/04/04 07:21:10;;;;;;;1.65;1.10;;;;;;;14.95;85.27;92684.88;4871230;29;20667;-79
2024/04/04 07:23:36;;;;;;;2.42;1.30;;;;;;;13.89;95.37;92682.16;4871308;29;20040;-79
2024/04/04 07:26:02;;;;;;;2.70;1.55;;;;;;;12.76;99.18;92683.91;4871947;29;20383;-78
2024/04/04 07:28:28;;;;;;;2.60;1.15;;;;;;;12.66;100.00;92687.50;4871686;29;20041;-79
2024/04/04 07:30:54;;;;;;;6.22;2.40;;;;;;;12.43;100.00;92695.31;4863861;29;20097;-78
2024/04/04 07:33:20;;;;;;;3.42;1.63;;;;;;;12.35;100.00;92700.44;4871504;29;20056;-78
2024/04/04 07:35:45;;;;;;;2.28;1.27;;;;;;;12.27;100.00;92701.88;4876519;29;20045;-78
2024/04/04 07:38:13;;;;;;;2.25;1.25;;;;;;;12.69;96.35;92723.69;4871035;29;20093;-78
2024/04/04 07:40:40;;;;;;;4.03;1.35;;;;;;;13.30;100.00;92727.69;4867684;29;20037;-78
2024/04/04 07:43:07;;;;;;;2.33;1.30;;;;;;;13.15;100.00;92732.47;4880771;29;20029;-78
2024/04/04 07:45:42;;;;;;;2.97;1.20;;;;;;;13.40;100.00;92731.97;4868004;29;20041;-78
2024/04/04 07:48:10;;;;;;;2.72;1.30;;;;;;;13.66;100.00;92731.38;4873857;29;20083;-78
2024/04/04 07:50:37;;;;;;;6.32;2.35;;;;;;;13.57;98.35;92738.44;4887905;29;20107;-78
2024/04/04 07:53:03;;;;;;;1.73;1.00;;;;;;;13.56;94.30;92737.66;4873477;29;20037;-78
2024/04/04 07:55:30;;;;;;;2.53;1.25;;;;;;;13.33;95.89;92727.13;4872639;29;20078;-78
2024/04/04 07:57:56;;;;;;;3.13;1.60;;;;;;;13.02;100.00;92741.97;4872472;29;20064;-78
2024/04/04 08:00:22;;;;;;;2.92;1.65;;;;;;;12.42;100.00;92753.34;4881468;29;20104;-77
2024/04/04 08:02:48;;;;;;;3.42;1.40;;;;;;;12.15;100.00;92748.84;4877378;29;20052;-77
2024/04/04 08:05:14;;;;;;;2.78;1.67;;;;;;;12.06;100.00;92751.34;4874507;29;20068;-77
2024/04/04 08:07:40;;;;;;;2.78;1.38;;;;;;;12.00;100.00;92760.34;4878705;29;20534;-78
2024/04/04 08:10:10;;;;;;;5.93;1.63;;;;;;;11.95;100.00;92770.94;4887717;29;20145;-79
2024/04/04 08:12:36;;;;;;;2.55;1.30;;;;;;;12.08;100.00;92770.19;4882332;29;20041;-77
2024/04/04 08:15:10;;;;;;;2.35;1.23;;;;;;;12.12;100.00;92767.78;4887871;29;20072;-78
2024/04/04 08:17:40;;;;;;;1.52;1.02;;;;;;;12.18;100.00;92772.66;4882575;29;20072;-78
2024/04/04 08:20:09;;;;;;;3.83;1.08;;;;;;;12.50;99.39;92771.06;4884089;29;20036;-78
2024/04/04 08:22:36;;;;;;;2.38;1.30;;;;;;;12.44;100.00;92777.47;4879941;29;20089;-78
2024/04/04 08:25:02;;;;;;;1.58;1.02;;;;;;;12.50;100.00;92781.56;4877588;29;20055;-78
2024/04/04 08:27:28;;;;;;;3.38;1.73;;;;;;;12.53;100.00;92778.34;4881488;29;20131;-79
2024/04/04 08:29:53;;;;;;;2.20;0.93;;;;;;;12.26;100.00;92781.72;4871092;29;20652;-78
2024/04/04 08:32:19;;;;;;;1.65;1.00;;;;;;;12.45;100.00;92795.56;4885623;29;20518;-78
2024/04/04 08:34:45;;;;;;;3.35;1.13;;;;;;;12.41;99.25;92793.81;4876759;29;20049;-78
2024/04/04 08:37:11;;;;;;;2.60;1.30;;;;;;;12.32;99.98;92790.28;4878558;29;20037;-79
2024/04/04 08:39:38;;;;;;;1.98;1.10;;;;;;;12.59;97.51;92795.56;4874012;29;20029;-79
2024/04/04 08:42:04;;;;;;;2.35;1.23;;;;;;;12.48;94.21;92805.47;4878309;29;20510;-78
2024/04/04 08:44:31;;;;;;;2.25;1.20;;;;;;;12.44;100.00;92796.63;4879366;29;20051;-79
2024/04/04 08:46:59;;;;;;;4.88;1.25;;;;;;;12.51;100.00;92796.22;4887615;29;20036;-79
2024/04/04 08:49:29;;;;;;;4.15;1.30;;;;;;;12.61;100.00;92792.63;4884764;29;20037;-79
2024/04/04 08:51:59;;;;;;;2.45;1.30;;;;;;;12.17;98.95;92804.44;4874807;29;20041;-78
2024/04/04 08:54:26;;;;;;;3.38;1.70;;;;;;;12.07;100.00;92800.91;4878378;29;20109;-79
2024/04/04 08:56:53;;;;;;;4.35;2.13;;;;;;;11.67;100.00;92797.03;4910362;23;20115;-79
2024/04/04 08:59:20;;;;;;;5.28;2.00;;;;;;;10.87;100.00;92801.19;4900822;29;20489;-82
2024/04/04 09:01:46;;;;;;;3.90;1.90;;;;;;;11.07;100.00;92797.56;4888922;29;20084;-82
2024/04/04 09:04:22;;;;;;;3.70;1.60;;;;;;;11.32;100.00;92800.91;4900783;29;20041;-82
2024/04/04 09:06:48;;;;;;;4.85;1.80;;;;;;;11.53;100.00;92793.56;4889738;29;20077;-80
2024/04/04 09:09:14;;;;;;;4.07;2.17;;;;;;;11.63;100.00;92798.66;4885073;29;20064;-81
2024/04/04 09:11:39;;;;;;;4.07;1.60;;;;;;;11.41;100.00;92793.97;4882387;29;20045;-80
2024/04/04 09:14:09;;;;;;;5.30;1.55;;;;;;;11.87;100.00;92788.88;4900510;29;20517;-81
2024/04/04 09:16:46;;;;;;;0.90;0.90;;;;;;;12.34;100.00;92788.13;4895708;29;20057;-80
2024/04/04 09:19:16;;;;;;;3.03;1.55;;;;;;;12.07;100.00;92794.88;4881947;29;20037;-82
2024/04/04 09:21:45;;;;;;;3.85;1.50;;;;;;;11.98;100.00;92793.97;4875032;29;20064;-81
2024/04/04 09:24:15;;;;;;;3.60;1.50;;;;;;;12.11;100.00;92790.59;4847129;29;20046;-80
2024/04/04 09:26:46;;;;;;;2.15;1.13;;;;;;;12.08;100.00;92780.69;4876405;29;20041;-81
2024/04/04 09:29:12;;;;;;;1.85;1.20;;;;;;;12.20;100.00;92788.88;4881685;29;20064;-81
2024/04/04 09:31:41;;;;;;;2.58;1.10;;;;;;;12.17;100.00;92786.84;4881969;29;20037;-81
2024/04/04 09:34:10;;;;;;;8.80;2.78;;;;;;;12.28;100.00;92790.06;4861236;29;20045;-79
2024/04/04 09:36:37;;;;;;;2.45;1.35;;;;;;;12.23;100.00;92788.31;4846584;29;20091;-81
2024/04/04 09:39:08;;;;;;;1.90;1.27;;;;;;;12.31;100.00;92786.88;4864412;29;20226;-79
2024/04/04 09:41:37;;;;;;;2.15;1.35;;;;;;;12.34;100.00;92790.75;4873533;29;20047;-82
2024/04/04 09:44:05;;;;;;;4.80;1.17;;;;;;;12.32;100.00;92785.03;4834180;29;20041;-81
2024/04/04 09:46:37;;;;;;;2.40;1.40;;;;;;;12.39;99.75;92778.34;4878960;29;20033;-81
2024/04/04 09:49:05;;;;;;;4.53;1.30;;;;;;;12.37;100.00;92779.69;4885919;29;20037;-81
2024/04/04 09:51:37;;;;;;;2.15;1.40;;;;;;;12.32;100.00;92780.56;4884366;29;20028;-81
2024/04/04 09:54:03;;;;;;;5.23;1.20;;;;;;;12.42;100.00;92790.09;4874144;29;20087;-81
2024/04/04 09:56:30;;;;;;;0.85;0.80;;;;;;;12.38;98.40;92782.00;4890812;29;20432;-81
2024/04/04 09:58:56;;;;;;;2.88;1.20;;;;;;;12.45;100.00;92779.81;4884513;29;20459;-80
2024/04/04 10:01:24;;;;;;;1.52;1.17;;;;;;;12.55;100.00;92778.84;4851969;29;20071;-82
2024/04/04 10:03:52;;;;;;;3.55;1.45;;;;;;;12.73;100.00;92792.19;4881392;29;20148;-81
2024/04/04 10:06:46;;;;;;;2.47;1.40;;;;;;;13.03;94.96;92807.34;4892093;29;20076;-82
2024/04/04 10:09:23;;;;;;;2.08;1.20;;;;;;;13.23;96.85;92800.13;4863338;29;20742;-81
2024/04/04 10:11:49;;;;;;;2.50;1.30;;;;;;;13.07;100.00;92800.44;4869302;29;20128;-82
2024/04/04 10:14:20;;;;;;;3.45;1.42;;;;;;;13.00;96.52;92794.81;4881128;29;20028;-81
2024/04/04 10:16:52;;;;;;;2.45;1.50;;;;;;;13.13;99.53;92794.00;4880756;29;20095;-81
2024/04/04 10:19:26;;;;;;;3.58;1.60;;;;;;;12.78;96.34;92792.06;4871315;29;20045;-81
2024/04/04 10:21:51;;;;;;;5.28;2.38;;;;;;;12.98;99.49;92791.69;4868357;29;20503;-82
2024/04/04 10:24:26;;;;;;;3.40;1.48;;;;;;;13.19;100.00;92780.75;4866273;29;20032;-81
2024/04/04 10:27:02;;;;;;;5.75;2.33;;;;;;;13.19;96.02;92792.03;4884568;29;20043;-81
2024/04/04 10:29:35;;;;;;;7.00;2.55;;;;;;;13.25;95.92;92790.09;4891512;29;20044;-82
2024/04/04 10:32:08;;;;;;;3.85;1.90;;;;;;;13.35;98.29;92794.41;4895634;29;20069;-80
2024/04/04 10:34:34;;;;;;;4.03;2.10;;;;;;;13.18;100.00;92795.00;4864952;29;20045;-81
2024/04/04 10:37:00;;;;;;;5.20;2.10;;;;;;;13.00;100.00;92792.16;4870902;29;20045;-81
2024/04/04 10:39:26;;;;;;;5.00;1.92;;;;;;;13.04;100.00;92784.50;4882889;29;20070;-80
2024/04/04 10:41:55;;;;;;;5.57;2.70;;;;;;;13.02;100.00;92787.41;4863331;29;20506;-81
2024/04/04 10:44:22;;;;;;;4.72;2.00;;;;;;;13.14;100.00;92781.66;4867129;29;20479;-80
2024/04/04 10:46:53;;;;;;;5.15;2.40;;;;;;;13.08;100.00;92791.50;4877576;29;20045;-80
2024/04/04 10:49:23;;;;;;;10.50;2.10;;;;;;;13.18;100.00;92798.38;4880308;29;20045;-81
2024/04/04 10:51:51;;;;;;;5.40;2.45;;;;;;;13.01;100.00;92793.72;4862045;29;20113;-82
2024/04/04 10:54:18;;;;;;;4.10;1.88;;;;;;;12.67;100.00;92776.50;4866366;29;20021;-81
2024/04/04 10:56:53;;;;;;;4.40;2.20;;;;;;;12.79;100.00;92788.38;4865737;29;20140;-81
2024/04/04 10:59:19;;;;;;;4.10;2.10;;;;;;;12.70;100.00;92791.69;4891220;29;20093;-81
2024/04/04 11:01:46;;;;;;;7.72;2.53;;;;;;;12.63;100.00;92793.94;4887248;29;20029;-81
2024/04/04 11:04:12;;;;;;;6.55;2.40;;;;;;;12.84;100.00;92790.91;4860583;29;20104;-81
2024/04/04 11:06:42;;;;;;;5.95;1.88;;;;;;;12.70;100.00;92786.44;4888966;29;20040;-82
2024/04/04 11:09:15;;;;;;;4.13;2.15;;;;;;;12.67;100.00;92786.22;4879160;29;20489;-82
2024/04/04 11:11:46;;;;;;;5.28;2.38;;;;;;;12.70;100.00;92788.28;4882668;29;20060;-82
2024/04/04 11:14:13;;;;;;;22.42;5.55;;;;;;;12.98;100.00;92791.69;4881235;29;20470;-82
2024/04/04 11:16:40;;;;;;;3.20;1.95;;;;;;;13.10;100.00;92789.34;4864882;29;20093;-82
2024/04/04 11:19:06;;;;;;;6.53;2.47;;;;;;;13.15;100.00;92782.41;4873217;29;20145;-81
2024/04/04 11:21:32;;;;;;;6.93;2.40;;;;;;;13.56;100.00;92773.72;4889062;29;20033;-80
2024/04/04 11:23:58;;;;;;;3.95;1.80;;;;;;;13.61;100.00;92778.84;4884911;29;20048;-82
2024/04/04 11:26:24;;;;;;;6.18;2.25;;;;;;;13.69;100.00;92767.59;4845773;29;20025;-82
2024/04/04 11:28:51;;;;;;;5.60;2.55;;;;;;;13.82;100.00;92766.78;4869425;29;20052;-81
2024/04/04 11:31:17;;;;;;;4.05;1.92;;;;;;;13.85;100.00;92760.94;4854962;29;20025;-81
2024/04/04 11:33:42;;;;;;;5.60;2.20;;;;;;;13.59;100.00;92760.72;4869390;29;20347;-82